createdAt,value
2023-01-06T00:01:27.516Z,6.13
2023-01-06T00:03:58.478Z,11.20
2023-01-06T00:06:28.732Z,5.87
2023-01-06T00:08:58.526Z,5.03
2023-01-06T00:11:28.726Z,8.63
2023-01-06T00:13:57.556Z,7.50
2023-01-06T00:16:26.194Z,10.93
2023-01-06T00:18:57.234Z,5.73
2023-01-06T00:21:26.116Z,5.57
2023-01-06T00:23:54.747Z,5.13
2023-01-06T00:26:23.625Z,10.57
2023-01-06T00:28:56.297Z,5.67
2023-01-06T00:31:27.672Z,6.17
2023-01-06T00:33:57.519Z,8.97
2023-01-06T00:36:26.858Z,15.67
2023-01-06T00:38:55.407Z,9.23
2023-01-06T00:41:41.602Z,8.77
2023-01-06T00:44:11.456Z,12.47
2023-01-06T00:46:40.359Z,6.20
2023-01-06T00:49:09.148Z,8.97
2023-01-06T00:51:41.525Z,4.67
2023-01-06T00:54:11.996Z,6.63
2023-01-06T00:56:41.335Z,8.47
2023-01-06T00:59:13.416Z,4.13
2023-01-06T01:01:43.586Z,2.93
2023-01-06T01:04:13.083Z,7.80
2023-01-06T01:06:44.850Z,7.97
2023-01-06T01:09:16.208Z,7.20
2023-01-06T01:12:02.297Z,5.10
2023-01-06T01:14:32.684Z,4.60
2023-01-06T01:17:01.364Z,5.47
2023-01-06T01:19:31.689Z,6.33
2023-01-06T01:22:02.481Z,5.77
2023-01-06T01:24:31.421Z,4.93
2023-01-06T01:27:00.424Z,4.80
2023-01-06T01:29:28.983Z,6.60
2023-01-06T01:31:59.513Z,7.10
2023-01-06T01:34:29.576Z,7.37
2023-01-06T01:36:59.072Z,7.53
2023-01-06T01:39:29.466Z,9.07
2023-01-06T01:41:59.768Z,2.30
2023-01-06T01:45:10.494Z,3.57
2023-01-06T01:47:52.467Z,4.17
2023-01-06T01:50:28.531Z,3.80
2023-01-06T01:53:04.097Z,4.60
2023-01-06T01:55:34.197Z,4.53
2023-01-06T01:58:07.989Z,6.23
2023-01-06T02:00:37.386Z,7.00
2023-01-06T02:03:08.367Z,4.40
2023-01-06T02:05:41.002Z,4.77
2023-01-06T02:08:17.429Z,2.90
2023-01-06T02:10:46.183Z,7.90
2023-01-06T02:13:15.131Z,3.73
2023-01-06T02:15:44.976Z,6.73
2023-01-06T02:18:38.537Z,3.53
2023-01-06T02:21:35.598Z,4.20
2023-01-06T02:24:46.729Z,6.23
2023-01-06T02:27:38.655Z,5.20
2023-01-06T02:30:45.805Z,7.20
2023-01-06T02:33:25.302Z,6.13
2023-01-06T02:36:22.080Z,9.33
2023-01-06T02:39:16.620Z,4.63
2023-01-06T02:41:49.672Z,6.53
2023-01-06T02:44:26.015Z,4.70
2023-01-06T02:47:09.650Z,7.80
2023-01-06T02:49:48.048Z,4.67
2023-01-06T02:52:28.046Z,3.97
2023-01-06T02:55:00.454Z,3.60
2023-01-06T02:57:38.214Z,3.93
2023-01-06T03:00:14.771Z,3.50
2023-01-06T03:02:48.889Z,6.80
2023-01-06T03:05:19.319Z,6.67
2023-01-06T03:07:49.137Z,4.03
2023-01-06T03:10:21.309Z,7.07
2023-01-06T03:12:54.525Z,4.17
2023-01-06T03:15:26.428Z,4.57
2023-01-06T03:17:55.546Z,7.63
2023-01-06T03:20:25.754Z,7.60
2023-01-06T03:22:54.758Z,5.90
2023-01-06T03:25:24.248Z,6.23
2023-01-06T03:27:53.684Z,6.47
2023-01-06T03:30:28.382Z,7.63
2023-01-06T03:33:04.183Z,7.70
2023-01-06T03:35:55.801Z,5.57
2023-01-06T03:38:33.619Z,7.43
2023-01-06T03:41:09.879Z,3.97
2023-01-06T03:43:44.647Z,5.70
2023-01-06T03:46:24.301Z,4.97
2023-01-06T03:49:09.519Z,5.57
2023-01-06T03:51:54.882Z,3.63
2023-01-06T03:54:35.515Z,2.50
2023-01-06T03:57:08.756Z,3.80
2023-01-06T03:59:42.562Z,8.03
2023-01-06T04:02:12.614Z,3.80
2023-01-06T04:04:42.760Z,5.63
2023-01-06T04:07:14.225Z,3.47
2023-01-06T04:09:44.244Z,6.90
2023-01-06T04:12:30.702Z,4.03
2023-01-06T04:15:00.017Z,3.73
2023-01-06T04:17:28.598Z,5.03
2023-01-06T04:19:57.797Z,3.83
2023-01-06T04:22:28.624Z,3.73
2023-01-06T04:24:57.716Z,4.57
2023-01-06T04:27:26.482Z,5.87
2023-01-06T04:29:55.186Z,4.13
2023-01-06T04:32:23.994Z,5.33
2023-01-06T04:34:53.502Z,4.00
2023-01-06T04:37:21.997Z,6.73
2023-01-06T04:39:52.084Z,5.20
2023-01-06T04:42:20.913Z,6.37
2023-01-06T04:44:49.636Z,7.93
2023-01-06T04:47:18.280Z,6.17
2023-01-06T04:49:48.095Z,3.00
2023-01-06T04:52:17.598Z,5.67
2023-01-06T04:54:46.462Z,4.40
2023-01-06T04:57:16.487Z,4.97
2023-01-06T04:59:44.859Z,7.73
2023-01-06T05:02:13.522Z,5.87
2023-01-06T05:04:47.679Z,6.07
2023-01-06T05:07:16.805Z,2.97
2023-01-06T05:09:45.480Z,4.83
2023-01-06T05:12:14.089Z,4.50
2023-01-06T05:14:44.243Z,3.43
2023-01-06T05:17:12.753Z,6.27
2023-01-06T05:19:43.075Z,5.37
2023-01-06T05:22:12.177Z,5.37
2023-01-06T05:24:40.899Z,4.83
2023-01-06T05:27:09.829Z,5.27
2023-01-06T05:29:38.531Z,3.57
2023-01-06T05:32:08.352Z,5.00
2023-01-06T05:34:37.239Z,5.00
2023-01-06T05:37:05.990Z,3.23
2023-01-06T05:39:34.852Z,3.87
2023-01-06T05:42:03.316Z,3.90
2023-01-06T05:44:32.223Z,6.97
2023-01-06T05:47:00.792Z,2.30
2023-01-06T05:49:30.880Z,3.40
2023-01-06T05:51:59.387Z,2.37
2023-01-06T05:54:27.962Z,2.83
2023-01-06T05:56:56.438Z,2.90
2023-01-06T05:59:25.261Z,4.17
2023-01-06T06:01:54.393Z,1.97
2023-01-06T06:04:23.164Z,3.07
2023-01-06T06:06:53.341Z,1.93
2023-01-06T06:09:22.984Z,3.90
2023-01-06T06:11:52.066Z,4.33
2023-01-06T06:14:20.929Z,3.57
2023-01-06T06:16:49.882Z,3.77
2023-01-06T06:19:19.080Z,5.97
2023-01-06T06:21:48.098Z,3.67
2023-01-06T06:24:18.285Z,4.33
2023-01-06T06:26:47.095Z,5.30
2023-01-06T06:29:15.805Z,4.97
2023-01-06T06:31:44.804Z,6.07
2023-01-06T06:34:14.911Z,3.17
2023-01-06T06:36:44.006Z,9.53
2023-01-06T06:39:13.097Z,5.77
2023-01-06T06:41:43.230Z,5.57
2023-01-06T06:44:11.857Z,2.37
2023-01-06T06:46:40.881Z,3.10
2023-01-06T06:49:09.844Z,5.57
2023-01-06T06:51:38.827Z,3.80
2023-01-06T06:54:07.457Z,2.53
2023-01-06T06:56:35.997Z,3.37
2023-01-06T06:59:06.393Z,4.40
2023-01-06T07:01:35.147Z,3.83
2023-01-06T07:04:04.055Z,5.23
2023-01-06T07:06:33.209Z,4.67
2023-01-06T07:09:02.159Z,2.33
2023-01-06T07:11:30.554Z,1.37
2023-01-06T07:13:59.208Z,3.23
2023-01-06T07:16:29.419Z,2.00
2023-01-06T07:18:58.290Z,2.70
2023-01-06T07:21:27.205Z,4.30
2023-01-06T07:23:55.794Z,3.07
2023-01-06T07:26:24.484Z,2.27
2023-01-06T07:28:53.153Z,3.77
2023-01-06T07:31:21.825Z,5.07
2023-01-06T07:33:52.392Z,3.40
2023-01-06T07:36:21.419Z,2.50
2023-01-06T07:38:49.993Z,3.47
2023-01-06T07:41:18.674Z,2.23
2023-01-06T07:43:47.476Z,3.20
2023-01-06T07:46:15.949Z,2.63
2023-01-06T07:48:44.551Z,5.70
2023-01-06T07:51:14.512Z,2.27
2023-01-06T07:53:43.239Z,3.20
2023-01-06T07:56:11.962Z,3.33
2023-01-06T07:58:40.499Z,5.30
2023-01-06T08:01:10.129Z,4.30
2023-01-06T08:03:38.770Z,2.63
2023-01-06T08:06:09.108Z,4.07
2023-01-06T08:08:41.131Z,5.37
2023-01-06T08:11:13.405Z,4.00
2023-01-06T08:13:42.175Z,2.07
2023-01-06T08:16:12.320Z,2.97
2023-01-06T08:18:41.425Z,1.73
2023-01-06T08:21:11.343Z,2.57
2023-01-06T08:23:41.629Z,2.50
2023-01-06T08:26:13.510Z,0.90
2023-01-06T08:28:42.597Z,1.40
2023-01-06T08:31:12.158Z,2.03
2023-01-06T08:33:42.421Z,1.87
2023-01-06T08:36:15.632Z,1.27
2023-01-06T08:38:46.388Z,2.77
2023-01-06T08:41:15.362Z,4.33
2023-01-06T08:43:46.252Z,2.43
2023-01-06T08:46:17.842Z,1.57
2023-01-06T08:48:46.519Z,2.90
2023-01-06T08:51:17.232Z,3.17
2023-01-06T08:53:47.808Z,1.83
2023-01-06T08:56:18.252Z,3.30
2023-01-06T08:58:47.159Z,1.57
2023-01-06T09:01:19.858Z,2.47
2023-01-06T09:03:48.653Z,2.93
2023-01-06T09:06:18.290Z,4.23
2023-01-06T09:08:49.682Z,4.57
2023-01-06T09:11:19.016Z,3.47
2023-01-06T09:13:47.748Z,3.40
2023-01-06T09:16:16.444Z,3.63
2023-01-06T09:18:49.773Z,5.67
2023-01-06T09:21:19.924Z,2.30
2023-01-06T09:23:50.571Z,3.77
2023-01-06T09:26:21.773Z,3.20
2023-01-06T09:28:50.263Z,6.77
2023-01-06T09:31:19.277Z,6.10
2023-01-06T09:33:47.929Z,3.97
2023-01-06T09:36:16.509Z,1.97
2023-01-06T09:38:45.065Z,2.20
2023-01-06T09:41:35.410Z,3.00
2023-01-06T09:44:11.175Z,2.30
2023-01-06T09:46:47.065Z,4.67
2023-01-06T09:49:27.594Z,2.03
2023-01-06T09:52:00.594Z,2.63
2023-01-06T09:54:34.377Z,2.17
2023-01-06T09:57:07.898Z,4.67
2023-01-06T09:59:44.634Z,8.90
2023-01-06T10:02:18.410Z,6.60
2023-01-06T10:04:46.952Z,2.53
2023-01-06T10:07:25.048Z,2.67
2023-01-06T10:10:07.152Z,1.50
2023-01-06T10:12:51.651Z,3.37
2023-01-06T10:15:27.829Z,1.50
2023-01-06T10:18:14.396Z,1.70
2023-01-06T10:20:53.614Z,2.20
2023-01-06T10:23:40.953Z,4.10
2023-01-06T10:26:14.366Z,2.43
2023-01-06T10:28:48.183Z,2.70
2023-01-06T10:31:20.446Z,3.33
2023-01-06T10:33:52.010Z,1.73
2023-01-06T10:36:32.184Z,2.80
2023-01-06T10:39:07.158Z,2.50
2023-01-06T10:41:44.484Z,3.93
2023-01-06T10:44:15.477Z,2.40
2023-01-06T10:46:45.517Z,3.13
2023-01-06T10:49:17.242Z,2.20
2023-01-06T10:51:51.809Z,7.73
2023-01-06T10:54:25.893Z,4.73
2023-01-06T10:56:57.538Z,3.37
2023-01-06T10:59:27.647Z,2.53
2023-01-06T11:01:59.132Z,2.30
2023-01-06T11:04:29.378Z,4.90
2023-01-06T11:07:00.436Z,3.10
2023-01-06T11:09:33.416Z,2.03
2023-01-06T11:12:04.512Z,3.30
2023-01-06T11:14:34.996Z,6.67
2023-01-06T11:17:05.853Z,3.30
2023-01-06T11:19:39.587Z,5.70
2023-01-06T11:22:33.890Z,3.57
2023-01-06T11:25:03.172Z,3.60
2023-01-06T11:27:31.841Z,3.57
2023-01-06T11:30:22.425Z,3.30
2023-01-06T11:32:51.508Z,4.37
2023-01-06T11:35:22.455Z,3.27
2023-01-06T11:37:58.997Z,2.80
2023-01-06T11:40:32.169Z,2.03
2023-01-06T11:43:07.856Z,5.47
2023-01-06T11:45:40.293Z,4.33
2023-01-06T11:48:17.583Z,4.77
2023-01-06T11:50:54.378Z,2.00
2023-01-06T11:53:24.658Z,3.50
2023-01-06T11:55:58.911Z,2.80
2023-01-06T11:58:53.336Z,1.53
2023-01-06T12:01:33.481Z,4.23
2023-01-06T12:04:12.917Z,4.03
2023-01-06T12:06:43.971Z,2.83
2023-01-06T12:09:19.605Z,4.87
2023-01-06T12:11:51.276Z,6.83
2023-01-06T12:14:28.807Z,2.23
2023-01-06T12:17:08.103Z,4.57
2023-01-06T12:19:44.241Z,4.73
2023-01-06T12:22:24.072Z,6.80
2023-01-06T12:24:53.994Z,3.73
2023-01-06T12:27:33.110Z,4.80
2023-01-06T12:30:05.101Z,4.80
2023-01-06T12:32:40.453Z,4.70
2023-01-06T12:35:15.526Z,4.43
2023-01-06T12:37:49.641Z,3.70
2023-01-06T12:40:26.008Z,4.20
2023-01-06T12:43:00.933Z,5.90
2023-01-06T12:45:41.125Z,5.30
2023-01-06T12:48:22.561Z,5.13
2023-01-06T12:50:58.120Z,3.50
2023-01-06T12:53:29.973Z,5.93
2023-01-06T12:56:20.192Z,6.40
2023-01-06T12:58:59.498Z,3.87
2023-01-06T13:01:36.866Z,3.07
2023-01-06T13:04:31.990Z,5.73
2023-01-06T13:07:12.944Z,2.53
2023-01-06T13:09:55.794Z,2.93
2023-01-06T13:12:40.519Z,2.83
2023-01-06T13:15:18.374Z,3.50
2023-01-06T13:17:54.240Z,2.70
2023-01-06T13:20:29.402Z,3.73
2023-01-06T13:23:11.757Z,2.60
2023-01-06T13:26:24.824Z,2.10
2023-01-06T13:29:05.324Z,3.43
2023-01-06T13:31:53.088Z,2.37
2023-01-06T13:34:52.943Z,3.47
2023-01-06T13:37:34.949Z,1.97
2023-01-06T13:40:09.729Z,6.43
2023-01-06T13:42:43.069Z,1.30
2023-01-06T13:45:42.917Z,1.87
2023-01-06T13:48:18.431Z,3.80
2023-01-06T13:50:47.230Z,2.47
2023-01-06T13:53:19.895Z,2.20
2023-01-06T13:55:48.794Z,1.87
2023-01-06T13:58:37.774Z,2.30
2023-01-06T14:01:08.440Z,1.43
2023-01-06T14:03:38.638Z,4.33
2023-01-06T14:06:12.387Z,1.27
2023-01-06T14:08:54.185Z,0.83
2023-01-06T14:11:28.225Z,1.80
2023-01-06T14:13:59.229Z,3.83
2023-01-06T14:16:44.390Z,1.97
2023-01-06T14:19:18.843Z,3.93
2023-01-06T14:21:49.234Z,3.93
2023-01-06T14:24:28.945Z,3.70
2023-01-06T14:27:01.382Z,2.70
2023-01-06T14:30:03.919Z,5.30
2023-01-06T14:33:12.820Z,2.70
2023-01-06T14:35:46.355Z,2.13
2023-01-06T14:38:26.237Z,3.23
2023-01-06T14:41:00.195Z,2.60
2023-01-06T14:43:34.545Z,5.40
2023-01-06T14:46:10.982Z,3.93
2023-01-06T14:48:46.588Z,3.37
2023-01-06T14:51:22.219Z,3.97
2023-01-06T14:53:57.912Z,2.80
2023-01-06T14:56:31.122Z,2.80
2023-01-06T14:59:11.687Z,1.83
2023-01-06T15:01:43.276Z,5.47
2023-01-06T15:04:24.743Z,2.57
2023-01-06T15:07:17.043Z,2.60
2023-01-06T15:09:45.888Z,2.10
2023-01-06T15:12:26.991Z,2.97
2023-01-06T15:14:56.121Z,4.40
2023-01-06T15:17:25.207Z,3.33
2023-01-06T15:19:55.092Z,3.20
2023-01-06T15:22:26.256Z,3.00
2023-01-06T15:24:56.645Z,4.00
2023-01-06T15:27:26.775Z,4.13
2023-01-06T15:29:57.042Z,3.63
2023-01-06T15:32:28.151Z,3.53
2023-01-06T15:34:59.585Z,4.03
2023-01-06T15:37:34.964Z,3.77
2023-01-06T15:40:06.115Z,6.50
2023-01-06T15:42:36.912Z,5.20
2023-01-06T15:45:07.808Z,4.17
2023-01-06T15:47:40.872Z,4.90
2023-01-06T15:50:17.673Z,5.87
2023-01-06T15:52:48.394Z,5.43
2023-01-06T15:55:25.964Z,6.47
2023-01-06T15:58:00.906Z,5.67
2023-01-06T16:00:32.401Z,5.47
2023-01-06T16:03:01.295Z,5.87
2023-01-06T16:05:35.608Z,6.60
2023-01-06T16:08:06.115Z,5.97
2023-01-06T16:10:38.553Z,5.50
2023-01-06T16:13:25.872Z,6.33
2023-01-06T16:15:59.846Z,7.23
2023-01-06T16:18:31.426Z,8.50
2023-01-06T16:21:01.898Z,6.90
2023-01-06T16:23:34.736Z,7.80
2023-01-06T16:26:09.746Z,7.93
2023-01-06T16:28:44.054Z,16.03
2023-01-06T16:31:14.357Z,7.17
2023-01-06T16:33:46.016Z,9.13
2023-01-06T16:36:17.175Z,6.70
2023-01-06T16:38:45.852Z,7.50
2023-01-06T16:41:18.118Z,8.07
2023-01-06T16:43:48.325Z,12.37
2023-01-06T16:46:22.544Z,9.73
2023-01-06T16:48:53.413Z,10.43
2023-01-06T16:51:22.770Z,10.07
2023-01-06T16:53:51.368Z,7.97
2023-01-06T16:56:22.749Z,8.60
2023-01-06T16:58:53.477Z,8.03
2023-01-06T17:01:23.699Z,9.00
2023-01-06T17:03:56.389Z,8.97
2023-01-06T17:06:27.605Z,8.43
2023-01-06T17:09:00.770Z,9.43
2023-01-06T17:11:33.464Z,9.50
2023-01-06T17:14:10.259Z,9.90
2023-01-06T17:16:42.782Z,9.17
2023-01-06T17:19:20.714Z,9.87
2023-01-06T17:21:52.406Z,8.00
2023-01-06T17:24:24.027Z,8.17
2023-01-06T17:26:54.551Z,9.87
2023-01-06T17:29:24.983Z,13.87
2023-01-06T17:31:56.765Z,9.93
2023-01-06T17:34:31.827Z,11.07
2023-01-06T17:37:08.059Z,12.67
2023-01-06T17:39:40.212Z,8.40
2023-01-06T17:42:26.717Z,8.87
2023-01-06T17:44:58.587Z,8.70
2023-01-06T17:47:30.276Z,9.00
2023-01-06T17:50:00.363Z,8.07
2023-01-06T17:52:33.563Z,6.60
2023-01-06T17:55:32.574Z,6.07
2023-01-06T17:58:01.253Z,6.23
2023-01-06T18:00:36.407Z,6.07
2023-01-06T18:03:07.425Z,7.33
2023-01-06T18:06:10.089Z,7.10
2023-01-06T18:08:39.670Z,5.43
2023-01-06T18:11:24.440Z,6.20
2023-01-06T18:13:54.611Z,5.33
2023-01-06T18:16:35.479Z,7.10
2023-01-06T18:19:18.134Z,4.83
2023-01-06T18:21:46.834Z,5.53
2023-01-06T18:24:20.099Z,5.67
2023-01-06T18:26:51.911Z,5.13
2023-01-06T18:29:23.848Z,4.70
2023-01-06T18:31:55.248Z,6.90
2023-01-06T18:34:40.025Z,5.20
2023-01-06T18:37:11.329Z,4.60
2023-01-06T18:39:44.009Z,4.90
2023-01-06T18:42:25.937Z,5.47
2023-01-06T18:45:03.808Z,4.57
2023-01-06T18:47:38.133Z,4.07
2023-01-06T18:50:24.751Z,6.43
2023-01-06T18:52:55.042Z,3.97
2023-01-06T18:55:32.605Z,4.30
2023-01-06T18:58:04.487Z,5.00
2023-01-06T19:00:38.422Z,5.10
2023-01-06T19:03:33.350Z,5.70
2023-01-06T19:06:32.573Z,4.67
2023-01-06T19:09:03.298Z,6.13
2023-01-06T19:11:34.116Z,5.50
2023-01-06T19:14:07.446Z,6.03
2023-01-06T19:16:39.284Z,5.63
2023-01-06T19:19:32.281Z,5.70
2023-01-06T19:22:17.458Z,7.60
2023-01-06T19:24:49.860Z,6.90
2023-01-06T19:27:43.838Z,8.77
2023-01-06T19:30:36.257Z,6.87
2023-01-06T19:33:19.772Z,8.27
2023-01-06T19:35:50.009Z,9.17
2023-01-06T19:38:27.440Z,7.03
2023-01-06T19:40:58.502Z,8.80
2023-01-06T19:43:29.505Z,9.23
2023-01-06T19:45:58.355Z,8.57
2023-01-06T19:48:30.655Z,8.10
2023-01-06T19:51:17.846Z,8.70
2023-01-06T19:53:47.768Z,10.93
2023-01-06T19:56:20.190Z,8.67
2023-01-06T19:58:53.829Z,7.83
2023-01-06T20:01:23.682Z,7.43
2023-01-06T20:03:54.879Z,11.00
2023-01-06T20:06:25.315Z,9.03
2023-01-06T20:08:54.700Z,8.90
2023-01-06T20:11:24.868Z,8.23
2023-01-06T20:13:53.720Z,10.27
2023-01-06T20:16:22.344Z,8.33
2023-01-06T20:18:51.030Z,7.80
2023-01-06T20:21:19.614Z,12.33
2023-01-06T20:23:49.695Z,9.27
2023-01-06T20:26:18.244Z,7.60
2023-01-06T20:28:46.974Z,7.53
2023-01-06T20:31:15.769Z,9.60
2023-01-06T20:33:47.530Z,6.20
2023-01-06T20:36:17.398Z,6.63
2023-01-06T20:38:46.553Z,6.63
2023-01-06T20:41:16.779Z,5.50
2023-01-06T20:43:45.498Z,6.40
2023-01-06T20:46:14.840Z,6.23
2023-01-06T20:48:44.331Z,7.57
2023-01-06T20:51:13.009Z,5.90
2023-01-06T20:53:41.637Z,7.03
2023-01-06T20:56:10.387Z,4.67
2023-01-06T20:58:40.525Z,5.10
2023-01-06T21:01:09.345Z,6.87
2023-01-06T21:03:38.375Z,4.93
2023-01-06T21:06:07.770Z,6.47
2023-01-06T21:08:36.838Z,5.63
2023-01-06T21:11:05.564Z,7.57
2023-01-06T21:13:34.192Z,6.27
2023-01-06T21:16:04.604Z,5.33
2023-01-06T21:18:34.806Z,3.83
2023-01-06T21:21:03.803Z,3.93
2023-01-06T21:23:32.723Z,4.40
2023-01-06T21:26:01.285Z,5.20
2023-01-06T21:28:30.225Z,4.50
2023-01-06T21:30:58.894Z,3.70
2023-01-06T21:33:29.225Z,5.43
2023-01-06T21:35:57.902Z,3.30
2023-01-06T21:38:26.970Z,3.77
2023-01-06T21:41:15.908Z,5.10
2023-01-06T21:43:43.619Z,4.40
2023-01-06T21:46:12.198Z,6.13
2023-01-06T21:48:42.166Z,6.70
2023-01-06T21:51:10.913Z,4.90
2023-01-06T21:53:39.900Z,3.60
2023-01-06T21:56:09.396Z,3.70
2023-01-06T21:58:38.482Z,3.87
2023-01-06T22:01:07.828Z,4.27
2023-01-06T22:03:36.495Z,7.57
2023-01-06T22:06:07.171Z,3.07
2023-01-06T22:08:36.300Z,6.37
2023-01-06T22:11:05.277Z,4.10
2023-01-06T22:13:34.755Z,6.40
2023-01-06T22:16:03.559Z,3.97
2023-01-06T22:18:34.291Z,5.70
2023-01-06T22:21:05.400Z,6.57
2023-01-06T22:23:35.142Z,3.93
2023-01-06T22:26:03.812Z,5.03
2023-01-06T22:28:32.516Z,3.33
2023-01-06T22:31:01.257Z,4.23
2023-01-06T22:33:30.251Z,8.37
2023-01-06T22:36:00.983Z,6.33
2023-01-06T22:38:31.185Z,4.37
2023-01-06T22:40:59.911Z,4.90
2023-01-06T22:43:28.381Z,4.13
2023-01-06T22:45:57.907Z,3.23
2023-01-06T22:48:27.054Z,3.40
2023-01-06T22:50:59.565Z,5.17
2023-01-06T22:53:28.370Z,5.80
2023-01-06T22:55:59.423Z,4.60
2023-01-06T22:58:28.456Z,4.13
2023-01-06T23:00:57.268Z,4.20
2023-01-06T23:03:26.426Z,7.53
2023-01-06T23:05:58.855Z,7.07
2023-01-06T23:08:28.299Z,4.70
2023-01-06T23:11:03.726Z,4.80
2023-01-06T23:13:33.854Z,3.93
2023-01-06T23:16:07.545Z,5.80
2023-01-06T23:18:37.801Z,4.20
2023-01-06T23:21:08.375Z,4.30
2023-01-06T23:23:38.595Z,5.57
2023-01-06T23:26:10.800Z,4.73
2023-01-06T23:28:40.830Z,6.50
2023-01-06T23:31:11.521Z,6.90
2023-01-06T23:33:40.774Z,8.37
2023-01-06T23:36:11.133Z,4.43
2023-01-06T23:38:40.231Z,6.03
2023-01-06T23:41:13.008Z,4.13
2023-01-06T23:43:41.663Z,6.93
2023-01-06T23:46:13.102Z,5.77
2023-01-06T23:48:42.423Z,5.30
2023-01-06T23:51:12.318Z,4.07
2023-01-06T23:53:41.472Z,4.70
2023-01-06T23:56:14.058Z,5.20
2023-01-06T23:58:44.672Z,3.93
